Cuivre River (Missouri), Troy (05514500)

StateMissouriLatestGood (240 cfs)
RiverCuivre RiverRatingObservedEstimated
Updated2026-04-10 17:30 (41 minutes ago)Flood - The river is flooding. Obstacles can be treacherous or deadly. The river should be avoided at this stage for casual trips and definitely for the inexperienced. Trips should be attempted only with protective gear and equipment.Flood(none)2680
Discharge240 cfs (median: 293 cfs)High - The river is high and potentially dangerous, especially for the young and / or inexperienced. Normal stream obstacles are sometimes difficult to navigate. Extended distances can be attempted, but canoe travel may not be advisable.High(none)718
Height6.56 feetGood - Conditions are ideal for a canoe or kayak. Boats typically will drag on fewer than one-quarter of riffles, if at all, and portages are unnecessary or rare. Normal float lengths can be attempted without a problem.Good(none)216
TrendSteady (falling over 24 hours)Low - River is low but can still be floated. Some riffles are okay but most come with significant dragging and might need a portage. Float lengths should be reduced to accommodate low flow, dragging, and portages.Low(none)132
USGSExternal icon USGS Site (External icon Duck Duck Go Maps)Poor - River is too low to float comfortably. Most or all riffles will drag or must be portaged and some obstacles (such as slick shelf rock) cause undue problems. Avoid the river at this stage for casual paddling trips.Poor(none)34

Trending Data

Plot Image

Trips for Cuivre River (Missouri), Troy (05514500)

DateStartEndDistanceConditionDischargeHeightFishingDetails

A total of 0 rows are displayed.

Condition Descriptions

Fishing Conditions

Fish Species

Notes

Classic Trip List

The classic River Trips application is still available for use. It is updated with the new system using a data retrofit. It is no longer maintained. The original River Trips application is no longer updated (as of 1 Dec 2016) but can be checked for errors or for the condition of the data before it was converted to the new system.

Gauge Data Table

ObservationHeightDischargeMaximum
Discharge
Minimum
Discharge
Mean
Discharge
P05P10P20P25P50
(Median)
P75P80P90P95
2026-04-10 17:30 6.56 240 10000 (1994) 5 (1954) 1110 41 80 126 152 293 694 821 3180 7520
2026-04-10 17:00 6.56 240 10000 (1994) 5 (1954) 1110 41 80 126 152 293 694 821 3180 7520
2026-04-10 16:30 6.56 240 10000 (1994) 5 (1954) 1110 41 80 126 152 293 694 821 3180 7520
2026-04-10 16:00 6.56 240 10000 (1994) 5 (1954) 1110 41 80 126 152 293 694 821 3180 7520
2026-04-10 15:30 6.57 244 10000 (1994) 5 (1954) 1110 41 80 126 152 293 694 821 3180 7520
2026-04-10 15:00 6.57 244 10000 (1994) 5 (1954) 1110 41 80 126 152 293 694 821 3180 7520
2026-04-10 14:30 6.57 244 10000 (1994) 5 (1954) 1110 41 80 126 152 293 694 821 3180 7520
2026-04-10 14:00 6.57 244 10000 (1994) 5 (1954) 1110 41 80 126 152 293 694 821 3180 7520
2026-04-10 13:30 6.58 248 10000 (1994) 5 (1954) 1110 41 80 126 152 293 694 821 3180 7520
2026-04-10 13:00 6.58 248 10000 (1994) 5 (1954) 1110 41 80 126 152 293 694 821 3180 7520
2026-04-10 12:30 6.58 248 10000 (1994) 5 (1954) 1110 41 80 126 152 293 694 821 3180 7520
2026-04-10 12:00 6.58 248 10000 (1994) 5 (1954) 1110 41 80 126 152 293 694 821 3180 7520
2026-04-10 11:30 6.59 251 10000 (1994) 5 (1954) 1110 41 80 126 152 293 694 821 3180 7520
2026-04-10 11:00 6.59 251 10000 (1994) 5 (1954) 1110 41 80 126 152 293 694 821 3180 7520
2026-04-10 10:30 6.59 251 10000 (1994) 5 (1954) 1110 41 80 126 152 293 694 821 3180 7520
2026-04-10 10:00 6.59 251 10000 (1994) 5 (1954) 1110 41 80 126 152 293 694 821 3180 7520
2026-04-10 09:30 6.59 251 10000 (1994) 5 (1954) 1110 41 80 126 152 293 694 821 3180 7520
2026-04-10 09:00 6.60 255 10000 (1994) 5 (1954) 1110 41 80 126 152 293 694 821 3180 7520
2026-04-10 08:30 6.60 255 10000 (1994) 5 (1954) 1110 41 80 126 152 293 694 821 3180 7520
2026-04-10 08:00 6.60 255 10000 (1994) 5 (1954) 1110 41 80 126 152 293 694 821 3180 7520
2026-04-10 07:30 6.61 259 10000 (1994) 5 (1954) 1110 41 80 126 152 293 694 821 3180 7520
2026-04-10 07:00 6.61 259 10000 (1994) 5 (1954) 1110 41 80 126 152 293 694 821 3180 7520
2026-04-10 06:30 6.61 259 10000 (1994) 5 (1954) 1110 41 80 126 152 293 694 821 3180 7520
2026-04-10 06:00 6.61 259 10000 (1994) 5 (1954) 1110 41 80 126 152 293 694 821 3180 7520
2026-04-10 05:30 6.62 263 10000 (1994) 5 (1954) 1110 41 80 126 152 293 694 821 3180 7520
2026-04-10 05:00 6.62 263 10000 (1994) 5 (1954) 1110 41 80 126 152 293 694 821 3180 7520
2026-04-10 04:30 6.62 263 10000 (1994) 5 (1954) 1110 41 80 126 152 293 694 821 3180 7520
2026-04-10 04:00 6.63 267 10000 (1994) 5 (1954) 1110 41 80 126 152 293 694 821 3180 7520
2026-04-10 03:30 6.63 267 10000 (1994) 5 (1954) 1110 41 80 126 152 293 694 821 3180 7520
2026-04-10 03:00 6.63 267 10000 (1994) 5 (1954) 1110 41 80 126 152 293 694 821 3180 7520
2026-04-10 02:30 6.63 267 10000 (1994) 5 (1954) 1110 41 80 126 152 293 694 821 3180 7520
2026-04-10 02:00 6.64 270 10000 (1994) 5 (1954) 1110 41 80 126 152 293 694 821 3180 7520
2026-04-10 01:30 6.64 270 10000 (1994) 5 (1954) 1110 41 80 126 152 293 694 821 3180 7520
2026-04-10 01:00 6.65 273 10000 (1994) 5 (1954) 1110 41 80 126 152 293 694 821 3180 7520
2026-04-10 00:30 6.65 273 10000 (1994) 5 (1954) 1110 41 80 126 152 293 694 821 3180 7520
2026-04-10 00:00 6.65 273 10000 (1994) 5 (1954) 1110 41 80 126 152 293 694 821 3180 7520
2026-04-09 23:30 6.66 276 10000 (1994) 5 (1954) 1110 41 80 126 152 293 694 821 3180 7520
2026-04-09 23:00 6.66 276 10000 (1994) 5 (1954) 1110 41 80 126 152 293 694 821 3180 7520
2026-04-09 22:30 6.66 276 17600 (1922) 3 (1954) 1010 42 77 131 149 291 614 740 1720 5760
2026-04-09 22:00 6.66 276 17600 (1922) 3 (1954) 1010 42 77 131 149 291 614 740 1720 5760
2026-04-09 21:30 6.67 280 17600 (1922) 3 (1954) 1010 42 77 131 149 291 614 740 1720 5760
2026-04-09 21:00 6.67 280 17600 (1922) 3 (1954) 1010 42 77 131 149 291 614 740 1720 5760
2026-04-09 20:30 6.67 280 17600 (1922) 3 (1954) 1010 42 77 131 149 291 614 740 1720 5760
2026-04-09 20:00 6.68 283 17600 (1922) 3 (1954) 1010 42 77 131 149 291 614 740 1720 5760
2026-04-09 19:30 6.68 283 17600 (1922) 3 (1954) 1010 42 77 131 149 291 614 740 1720 5760
2026-04-09 19:00 6.69 286 17600 (1922) 3 (1954) 1010 42 77 131 149 291 614 740 1720 5760
2026-04-09 18:30 6.69 286 17600 (1922) 3 (1954) 1010 42 77 131 149 291 614 740 1720 5760
2026-04-09 18:00 6.69 286 17600 (1922) 3 (1954) 1010 42 77 131 149 291 614 740 1720 5760
2026-04-09 17:30 6.69 286 17600 (1922) 3 (1954) 1010 42 77 131 149 291 614 740 1720 5760
2026-04-09 17:00 6.70 289 17600 (1922) 3 (1954) 1010 42 77 131 149 291 614 740 1720 5760
2026-04-09 16:30 6.69 286 17600 (1922) 3 (1954) 1010 42 77 131 149 291 614 740 1720 5760
2026-04-09 16:00 6.71 292 17600 (1922) 3 (1954) 1010 42 77 131 149 291 614 740 1720 5760
2026-04-09 15:30 6.71 292 17600 (1922) 3 (1954) 1010 42 77 131 149 291 614 740 1720 5760
2026-04-09 15:00 6.71 292 17600 (1922) 3 (1954) 1010 42 77 131 149 291 614 740 1720 5760
2026-04-09 14:30 6.72 296 17600 (1922) 3 (1954) 1010 42 77 131 149 291 614 740 1720 5760
2026-04-09 14:00 6.73 299 17600 (1922) 3 (1954) 1010 42 77 131 149 291 614 740 1720 5760
2026-04-09 13:30 6.70 289 17600 (1922) 3 (1954) 1010 42 77 131 149 291 614 740 1720 5760
2026-04-09 13:00 6.66 276 17600 (1922) 3 (1954) 1010 42 77 131 149 291 614 740 1720 5760
2026-04-09 12:30 6.67 280 17600 (1922) 3 (1954) 1010 42 77 131 149 291 614 740 1720 5760
2026-04-09 12:00 6.73 299 17600 (1922) 3 (1954) 1010 42 77 131 149 291 614 740 1720 5760
2026-04-09 11:30 6.70 289 17600 (1922) 3 (1954) 1010 42 77 131 149 291 614 740 1720 5760
2026-04-09 11:00 6.74 302 17600 (1922) 3 (1954) 1010 42 77 131 149 291 614 740 1720 5760
2026-04-09 10:30 6.75 305 17600 (1922) 3 (1954) 1010 42 77 131 149 291 614 740 1720 5760
2026-04-09 10:00 6.75 305 17600 (1922) 3 (1954) 1010 42 77 131 149 291 614 740 1720 5760
2026-04-09 09:30 6.75 305 17600 (1922) 3 (1954) 1010 42 77 131 149 291 614 740 1720 5760
2026-04-09 09:00 6.76 309 17600 (1922) 3 (1954) 1010 42 77 131 149 291 614 740 1720 5760
2026-04-09 08:30 6.76 309 17600 (1922) 3 (1954) 1010 42 77 131 149 291 614 740 1720 5760
2026-04-09 08:00 6.77 312 17600 (1922) 3 (1954) 1010 42 77 131 149 291 614 740 1720 5760
2026-04-09 07:30 6.77 312 17600 (1922) 3 (1954) 1010 42 77 131 149 291 614 740 1720 5760
2026-04-09 07:00 6.78 315 17600 (1922) 3 (1954) 1010 42 77 131 149 291 614 740 1720 5760
2026-04-09 06:30 6.78 315 17600 (1922) 3 (1954) 1010 42 77 131 149 291 614 740 1720 5760
2026-04-09 06:00 6.79 319 17600 (1922) 3 (1954) 1010 42 77 131 149 291 614 740 1720 5760
2026-04-09 05:30 6.79 319 17600 (1922) 3 (1954) 1010 42 77 131 149 291 614 740 1720 5760
2026-04-09 05:00 6.80 322 17600 (1922) 3 (1954) 1010 42 77 131 149 291 614 740 1720 5760
2026-04-09 04:30 6.80 322 17600 (1922) 3 (1954) 1010 42 77 131 149 291 614 740 1720 5760
2026-04-09 04:00 6.80 322 17600 (1922) 3 (1954) 1010 42 77 131 149 291 614 740 1720 5760
2026-04-09 03:30 6.81 326 17600 (1922) 3 (1954) 1010 42 77 131 149 291 614 740 1720 5760
2026-04-09 03:00 6.81 326 17600 (1922) 3 (1954) 1010 42 77 131 149 291 614 740 1720 5760
2026-04-09 02:30 6.82 329 17600 (1922) 3 (1954) 1010 42 77 131 149 291 614 740 1720 5760
2026-04-09 02:00 6.82 329 17600 (1922) 3 (1954) 1010 42 77 131 149 291 614 740 1720 5760
2026-04-09 01:30 6.83 333 17600 (1922) 3 (1954) 1010 42 77 131 149 291 614 740 1720 5760
2026-04-09 01:00 6.83 333 17600 (1922) 3 (1954) 1010 42 77 131 149 291 614 740 1720 5760
2026-04-09 00:30 6.84 336 17600 (1922) 3 (1954) 1010 42 77 131 149 291 614 740 1720 5760
2026-04-09 00:00 6.84 336 17600 (1922) 3 (1954) 1010 42 77 131 149 291 614 740 1720 5760
2026-04-08 23:30 6.84 336 17600 (1922) 3 (1954) 1010 42 77 131 149 291 614 740 1720 5760
2026-04-08 23:00 6.84 336 17600 (1922) 3 (1954) 1010 42 77 131 149 291 614 740 1720 5760
2026-04-08 22:30 6.85 340 22900 (1922) 4 (1954) 1180 45 79 139 175 336 790 913 1730 7260
2026-04-08 22:00 6.86 343 22900 (1922) 4 (1954) 1180 45 79 139 175 336 790 913 1730 7260
2026-04-08 21:30 6.86 343 22900 (1922) 4 (1954) 1180 45 79 139 175 336 790 913 1730 7260
2026-04-08 21:00 6.87 347 22900 (1922) 4 (1954) 1180 45 79 139 175 336 790 913 1730 7260
2026-04-08 20:30 6.87 347 22900 (1922) 4 (1954) 1180 45 79 139 175 336 790 913 1730 7260
2026-04-08 20:00 6.88 350 22900 (1922) 4 (1954) 1180 45 79 139 175 336 790 913 1730 7260
2026-04-08 19:30 6.88 350 22900 (1922) 4 (1954) 1180 45 79 139 175 336 790 913 1730 7260
2026-04-08 19:00 6.88 350 22900 (1922) 4 (1954) 1180 45 79 139 175 336 790 913 1730 7260
2026-04-08 18:30 6.84 336 22900 (1922) 4 (1954) 1180 45 79 139 175 336 790 913 1730 7260
2026-04-08 18:00 6.89 354 22900 (1922) 4 (1954) 1180 45 79 139 175 336 790 913 1730 7260
2026-04-08 17:30 6.88 350 22900 (1922) 4 (1954) 1180 45 79 139 175 336 790 913 1730 7260
2026-04-08 17:00 6.91 361 22900 (1922) 4 (1954) 1180 45 79 139 175 336 790 913 1730 7260
2026-04-08 16:30 6.90 358 22900 (1922) 4 (1954) 1180 45 79 139 175 336 790 913 1730 7260
2026-04-08 16:00 6.89 354 22900 (1922) 4 (1954) 1180 45 79 139 175 336 790 913 1730 7260
2026-04-08 15:30 6.90 358 22900 (1922) 4 (1954) 1180 45 79 139 175 336 790 913 1730 7260
2026-04-08 15:00 6.88 350 22900 (1922) 4 (1954) 1180 45 79 139 175 336 790 913 1730 7260
2026-04-08 14:30 6.93 369 22900 (1922) 4 (1954) 1180 45 79 139 175 336 790 913 1730 7260
2026-04-08 14:00 6.92 365 22900 (1922) 4 (1954) 1180 45 79 139 175 336 790 913 1730 7260
2026-04-08 13:30 6.94 372 22900 (1922) 4 (1954) 1180 45 79 139 175 336 790 913 1730 7260
2026-04-08 13:00 6.95 376 22900 (1922) 4 (1954) 1180 45 79 139 175 336 790 913 1730 7260
2026-04-08 12:30 6.96 380 22900 (1922) 4 (1954) 1180 45 79 139 175 336 790 913 1730 7260
2026-04-08 12:00 6.97 384 22900 (1922) 4 (1954) 1180 45 79 139 175 336 790 913 1730 7260
2026-04-08 11:30 6.98 387 22900 (1922) 4 (1954) 1180 45 79 139 175 336 790 913 1730 7260
2026-04-08 11:00 6.98 387 22900 (1922) 4 (1954) 1180 45 79 139 175 336 790 913 1730 7260
2026-04-08 10:30 6.98 387 22900 (1922) 4 (1954) 1180 45 79 139 175 336 790 913 1730 7260
2026-04-08 10:00 6.99 391 22900 (1922) 4 (1954) 1180 45 79 139 175 336 790 913 1730 7260
2026-04-08 09:30 7.00 395 22900 (1922) 4 (1954) 1180 45 79 139 175 336 790 913 1730 7260
2026-04-08 09:00 7.00 395 22900 (1922) 4 (1954) 1180 45 79 139 175 336 790 913 1730 7260
2026-04-08 08:30 7.01 399 22900 (1922) 4 (1954) 1180 45 79 139 175 336 790 913 1730 7260
2026-04-08 08:00 7.02 403 22900 (1922) 4 (1954) 1180 45 79 139 175 336 790 913 1730 7260
2026-04-08 07:30 7.03 407 22900 (1922) 4 (1954) 1180 45 79 139 175 336 790 913 1730 7260
2026-04-08 07:00 7.03 407 22900 (1922) 4 (1954) 1180 45 79 139 175 336 790 913 1730 7260
2026-04-08 06:30 7.04 411 22900 (1922) 4 (1954) 1180 45 79 139 175 336 790 913 1730 7260
2026-04-08 06:00 7.05 415 22900 (1922) 4 (1954) 1180 45 79 139 175 336 790 913 1730 7260
2026-04-08 05:30 7.05 415 22900 (1922) 4 (1954) 1180 45 79 139 175 336 790 913 1730 7260
2026-04-08 05:00 7.06 419 22900 (1922) 4 (1954) 1180 45 79 139 175 336 790 913 1730 7260
2026-04-08 04:30 7.06 419 22900 (1922) 4 (1954) 1180 45 79 139 175 336 790 913 1730 7260
2026-04-08 04:00 7.07 423 22900 (1922) 4 (1954) 1180 45 79 139 175 336 790 913 1730 7260
2026-04-08 03:30 7.08 427 22900 (1922) 4 (1954) 1180 45 79 139 175 336 790 913 1730 7260
2026-04-08 03:00 7.08 427 22900 (1922) 4 (1954) 1180 45 79 139 175 336 790 913 1730 7260
2026-04-08 02:30 7.09 431 22900 (1922) 4 (1954) 1180 45 79 139 175 336 790 913 1730 7260
2026-04-08 02:00 7.10 435 22900 (1922) 4 (1954) 1180 45 79 139 175 336 790 913 1730 7260
2026-04-08 01:30 7.10 435 22900 (1922) 4 (1954) 1180 45 79 139 175 336 790 913 1730 7260
2026-04-08 01:00 7.11 439 22900 (1922) 4 (1954) 1180 45 79 139 175 336 790 913 1730 7260
2026-04-08 00:30 7.12 443 22900 (1922) 4 (1954) 1180 45 79 139 175 336 790 913 1730 7260
2026-04-08 00:00 7.13 447 22900 (1922) 4 (1954) 1180 45 79 139 175 336 790 913 1730 7260
2026-04-07 23:30 7.13 447 22900 (1922) 4 (1954) 1180 45 79 139 175 336 790 913 1730 7260
2026-04-07 23:00 7.14 451 22900 (1922) 4 (1954) 1180 45 79 139 175 336 790 913 1730 7260
2026-04-07 22:30 7.08 427 31600 (1926) 4 (1954) 1100 44 80 134 176 370 783 1120 1960 3620
2026-04-07 22:00 7.15 456 31600 (1926) 4 (1954) 1100 44 80 134 176 370 783 1120 1960 3620
2026-04-07 21:30 7.14 451 31600 (1926) 4 (1954) 1100 44 80 134 176 370 783 1120 1960 3620
2026-04-07 21:00 7.17 464 31600 (1926) 4 (1954) 1100 44 80 134 176 370 783 1120 1960 3620
2026-04-07 20:30 7.18 468 31600 (1926) 4 (1954) 1100 44 80 134 176 370 783 1120 1960 3620
2026-04-07 20:00 7.18 468 31600 (1926) 4 (1954) 1100 44 80 134 176 370 783 1120 1960 3620
2026-04-07 19:30 7.11 439 31600 (1926) 4 (1954) 1100 44 80 134 176 370 783 1120 1960 3620
2026-04-07 19:00 7.20 477 31600 (1926) 4 (1954) 1100 44 80 134 176 370 783 1120 1960 3620
2026-04-07 18:30 7.17 464 31600 (1926) 4 (1954) 1100 44 80 134 176 370 783 1120 1960 3620
2026-04-07 18:00 7.21 481 31600 (1926) 4 (1954) 1100 44 80 134 176 370 783 1120 1960 3620
2026-04-07 17:30 7.16 460 31600 (1926) 4 (1954) 1100 44 80 134 176 370 783 1120 1960 3620
2026-04-07 17:00 7.17 464 31600 (1926) 4 (1954) 1100 44 80 134 176 370 783 1120 1960 3620
2026-04-07 16:30 7.23 490 31600 (1926) 4 (1954) 1100 44 80 134 176 370 783 1120 1960 3620
2026-04-07 16:00 7.24 494 31600 (1926) 4 (1954) 1100 44 80 134 176 370 783 1120 1960 3620
2026-04-07 15:30 7.21 481 31600 (1926) 4 (1954) 1100 44 80 134 176 370 783 1120 1960 3620
2026-04-07 15:00 7.23 490 31600 (1926) 4 (1954) 1100 44 80 134 176 370 783 1120 1960 3620
2026-04-07 14:30 7.28 512 31600 (1926) 4 (1954) 1100 44 80 134 176 370 783 1120 1960 3620
2026-04-07 14:00 7.25 499 31600 (1926) 4 (1954) 1100 44 80 134 176 370 783 1120 1960 3620
2026-04-07 13:30 7.29 517 31600 (1926) 4 (1954) 1100 44 80 134 176 370 783 1120 1960 3620
2026-04-07 13:00 7.29 517 31600 (1926) 4 (1954) 1100 44 80 134 176 370 783 1120 1960 3620
2026-04-07 12:30 7.25 499 31600 (1926) 4 (1954) 1100 44 80 134 176 370 783 1120 1960 3620
2026-04-07 12:00 7.33 535 31600 (1926) 4 (1954) 1100 44 80 134 176 370 783 1120 1960 3620
2026-04-07 11:30 7.30 521 31600 (1926) 4 (1954) 1100 44 80 134 176 370 783 1120 1960 3620
2026-04-07 11:00 7.32 531 31600 (1926) 4 (1954) 1100 44 80 134 176 370 783 1120 1960 3620
2026-04-07 10:30 7.26 503 31600 (1926) 4 (1954) 1100 44 80 134 176 370 783 1120 1960 3620
2026-04-07 10:00 7.32 531 31600 (1926) 4 (1954) 1100 44 80 134 176 370 783 1120 1960 3620
2026-04-07 09:30 7.37 554 31600 (1926) 4 (1954) 1100 44 80 134 176 370 783 1120 1960 3620
2026-04-07 09:00 7.32 531 31600 (1926) 4 (1954) 1100 44 80 134 176 370 783 1120 1960 3620
2026-04-07 08:30 7.39 563 31600 (1926) 4 (1954) 1100 44 80 134 176 370 783 1120 1960 3620
2026-04-07 08:00 7.39 563 31600 (1926) 4 (1954) 1100 44 80 134 176 370 783 1120 1960 3620
2026-04-07 07:30 7.42 578 31600 (1926) 4 (1954) 1100 44 80 134 176 370 783 1120 1960 3620
2026-04-07 07:00 7.38 559 31600 (1926) 4 (1954) 1100 44 80 134 176 370 783 1120 1960 3620
2026-04-07 06:30 7.45 592 31600 (1926) 4 (1954) 1100 44 80 134 176 370 783 1120 1960 3620
2026-04-07 06:00 7.44 588 31600 (1926) 4 (1954) 1100 44 80 134 176 370 783 1120 1960 3620
2026-04-07 05:30 7.48 607 31600 (1926) 4 (1954) 1100 44 80 134 176 370 783 1120 1960 3620
2026-04-07 05:00 7.49 612 31600 (1926) 4 (1954) 1100 44 80 134 176 370 783 1120 1960 3620
2026-04-07 04:30 7.50 617 31600 (1926) 4 (1954) 1100 44 80 134 176 370 783 1120 1960 3620
2026-04-07 04:00 7.52 627 31600 (1926) 4 (1954) 1100 44 80 134 176 370 783 1120 1960 3620
2026-04-07 03:30 7.53 633 31600 (1926) 4 (1954) 1100 44 80 134 176 370 783 1120 1960 3620
2026-04-07 03:00 7.55 643 31600 (1926) 4 (1954) 1100 44 80 134 176 370 783 1120 1960 3620
2026-04-07 02:30 7.56 648 31600 (1926) 4 (1954) 1100 44 80 134 176 370 783 1120 1960 3620
2026-04-07 02:00 7.58 658 31600 (1926) 4 (1954) 1100 44 80 134 176 370 783 1120 1960 3620
2026-04-07 01:30 7.59 664 31600 (1926) 4 (1954) 1100 44 80 134 176 370 783 1120 1960 3620
2026-04-07 01:00 7.61 674 31600 (1926) 4 (1954) 1100 44 80 134 176 370 783 1120 1960 3620
2026-04-07 00:30 7.62 680 31600 (1926) 4 (1954) 1100 44 80 134 176 370 783 1120 1960 3620
2026-04-07 00:00 7.64 690 31600 (1926) 4 (1954) 1100 44 80 134 176 370 783 1120 1960 3620
2026-04-06 23:30 7.65 696 31600 (1926) 4 (1954) 1100 44 80 134 176 370 783 1120 1960 3620
2026-04-06 23:00 7.66 701 31600 (1926) 4 (1954) 1100 44 80 134 176 370 783 1120 1960 3620
2026-04-06 22:30 7.69 717 27500 (1928) 4 (1954) 1410 44 95 142 170 384 906 1320 4510 6580
2026-04-06 22:00 7.70 723 27500 (1928) 4 (1954) 1410 44 95 142 170 384 906 1320 4510 6580
2026-04-06 21:30 7.72 734 27500 (1928) 4 (1954) 1410 44 95 142 170 384 906 1320 4510 6580
2026-04-06 21:00 7.74 745 27500 (1928) 4 (1954) 1410 44 95 142 170 384 906 1320 4510 6580
2026-04-06 20:30 7.74 745 27500 (1928) 4 (1954) 1410 44 95 142 170 384 906 1320 4510 6580
2026-04-06 20:00 7.76 757 27500 (1928) 4 (1954) 1410 44 95 142 170 384 906 1320 4510 6580
2026-04-06 19:30 7.78 768 27500 (1928) 4 (1954) 1410 44 95 142 170 384 906 1320 4510 6580
2026-04-06 19:00 7.81 785 27500 (1928) 4 (1954) 1410 44 95 142 170 384 906 1320 4510 6580
2026-04-06 18:30 7.83 797 27500 (1928) 4 (1954) 1410 44 95 142 170 384 906 1320 4510 6580
2026-04-06 18:00 7.84 803 27500 (1928) 4 (1954) 1410 44 95 142 170 384 906 1320 4510 6580
2026-04-06 17:30 7.86 815 27500 (1928) 4 (1954) 1410 44 95 142 170 384 906 1320 4510 6580
2026-04-06 17:00 7.88 827 27500 (1928) 4 (1954) 1410 44 95 142 170 384 906 1320 4510 6580
2026-04-06 16:30 7.90 839 27500 (1928) 4 (1954) 1410 44 95 142 170 384 906 1320 4510 6580
2026-04-06 16:00 7.93 857 27500 (1928) 4 (1954) 1410 44 95 142 170 384 906 1320 4510 6580
2026-04-06 15:30 7.95 869 27500 (1928) 4 (1954) 1410 44 95 142 170 384 906 1320 4510 6580
2026-04-06 15:00 7.97 882 27500 (1928) 4 (1954) 1410 44 95 142 170 384 906 1320 4510 6580
2026-04-06 14:30 8.00 900 27500 (1928) 4 (1954) 1410 44 95 142 170 384 906 1320 4510 6580
2026-04-06 14:00 8.01 907 27500 (1928) 4 (1954) 1410 44 95 142 170 384 906 1320 4510 6580
2026-04-06 13:30 8.04 926 27500 (1928) 4 (1954) 1410 44 95 142 170 384 906 1320 4510 6580
2026-04-06 13:00 8.06 939 27500 (1928) 4 (1954) 1410 44 95 142 170 384 906 1320 4510 6580
2026-04-06 12:30 8.09 958 27500 (1928) 4 (1954) 1410 44 95 142 170 384 906 1320 4510 6580
2026-04-06 12:00 8.10 965 27500 (1928) 4 (1954) 1410 44 95 142 170 384 906 1320 4510 6580
2026-04-06 11:30 8.12 978 27500 (1928) 4 (1954) 1410 44 95 142 170 384 906 1320 4510 6580
2026-04-06 11:00 8.16 1000 27500 (1928) 4 (1954) 1410 44 95 142 170 384 906 1320 4510 6580
2026-04-06 10:30 8.18 1020 27500 (1928) 4 (1954) 1410 44 95 142 170 384 906 1320 4510 6580
2026-04-06 10:00 8.20 1030 27500 (1928) 4 (1954) 1410 44 95 142 170 384 906 1320 4510 6580
2026-04-06 09:30 8.23 1050 27500 (1928) 4 (1954) 1410 44 95 142 170 384 906 1320 4510 6580
2026-04-06 09:00 8.26 1070 27500 (1928) 4 (1954) 1410 44 95 142 170 384 906 1320 4510 6580
2026-04-06 08:30 8.29 1090 27500 (1928) 4 (1954) 1410 44 95 142 170 384 906 1320 4510 6580
2026-04-06 08:00 8.32 1120 27500 (1928) 4 (1954) 1410 44 95 142 170 384 906 1320 4510 6580
2026-04-06 07:30 8.35 1140 27500 (1928) 4 (1954) 1410 44 95 142 170 384 906 1320 4510 6580
2026-04-06 07:00 8.38 1160 27500 (1928) 4 (1954) 1410 44 95 142 170 384 906 1320 4510 6580
2026-04-06 06:30 8.40 1170 27500 (1928) 4 (1954) 1410 44 95 142 170 384 906 1320 4510 6580
2026-04-06 06:00 8.43 1200 27500 (1928) 4 (1954) 1410 44 95 142 170 384 906 1320 4510 6580
2026-04-06 05:30 8.45 1210 27500 (1928) 4 (1954) 1410 44 95 142 170 384 906 1320 4510 6580
2026-04-06 05:00 8.50 1250 27500 (1928) 4 (1954) 1410 44 95 142 170 384 906 1320 4510 6580
2026-04-06 04:30 8.53 1270 27500 (1928) 4 (1954) 1410 44 95 142 170 384 906 1320 4510 6580
2026-04-06 04:00 8.55 1290 27500 (1928) 4 (1954) 1410 44 95 142 170 384 906 1320 4510 6580
2026-04-06 03:30 8.59 1320 27500 (1928) 4 (1954) 1410 44 95 142 170 384 906 1320 4510 6580
2026-04-06 03:00 8.61 1330 27500 (1928) 4 (1954) 1410 44 95 142 170 384 906 1320 4510 6580
2026-04-06 02:30 8.64 1360 27500 (1928) 4 (1954) 1410 44 95 142 170 384 906 1320 4510 6580
2026-04-06 02:00 8.68 1390 27500 (1928) 4 (1954) 1410 44 95 142 170 384 906 1320 4510 6580
2026-04-06 01:30 8.72 1420 27500 (1928) 4 (1954) 1410 44 95 142 170 384 906 1320 4510 6580
2026-04-06 01:00 8.75 1450 27500 (1928) 4 (1954) 1410 44 95 142 170 384 906 1320 4510 6580
2026-04-06 00:30 8.78 1470 27500 (1928) 4 (1954) 1410 44 95 142 170 384 906 1320 4510 6580
2026-04-06 00:00 8.81 1500 27500 (1928) 4 (1954) 1410 44 95 142 170 384 906 1320 4510 6580
2026-04-05 23:30 8.84 1530 27500 (1928) 4 (1954) 1410 44 95 142 170 384 906 1320 4510 6580
2026-04-05 23:00 8.89 1570 27500 (1928) 4 (1954) 1410 44 95 142 170 384 906 1320 4510 6580
2026-04-05 22:30 8.94 1610 17200 (1928) 3 (1954) 1440 48 101 159 187 439 1500 2240 4430 6610
2026-04-05 22:00 8.98 1650 17200 (1928) 3 (1954) 1440 48 101 159 187 439 1500 2240 4430 6610
2026-04-05 21:30 9.00 1670 17200 (1928) 3 (1954) 1440 48 101 159 187 439 1500 2240 4430 6610
2026-04-05 21:00 9.05 1710 17200 (1928) 3 (1954) 1440 48 101 159 187 439 1500 2240 4430 6610
2026-04-05 20:30 9.09 1750 17200 (1928) 3 (1954) 1440 48 101 159 187 439 1500 2240 4430 6610
2026-04-05 20:00 9.12 1780 17200 (1928) 3 (1954) 1440 48 101 159 187 439 1500 2240 4430 6610
2026-04-05 19:30 9.15 1810 17200 (1928) 3 (1954) 1440 48 101 159 187 439 1500 2240 4430 6610
2026-04-05 19:00 9.21 1860 17200 (1928) 3 (1954) 1440 48 101 159 187 439 1500 2240 4430 6610
2026-04-05 18:30 9.27 1920 17200 (1928) 3 (1954) 1440 48 101 159 187 439 1500 2240 4430 6610
2026-04-05 18:00 9.31 1960 17200 (1928) 3 (1954) 1440 48 101 159 187 439 1500 2240 4430 6610
2026-04-05 17:30 9.37 2020 17200 (1928) 3 (1954) 1440 48 101 159 187 439 1500 2240 4430 6610
2026-04-05 17:00 9.41 2060 17200 (1928) 3 (1954) 1440 48 101 159 187 439 1500 2240 4430 6610
2026-04-05 16:30 9.47 2100 17200 (1928) 3 (1954) 1440 48 101 159 187 439 1500 2240 4430 6610
2026-04-05 16:00 9.52 2130 17200 (1928) 3 (1954) 1440 48 101 159 187 439 1500 2240 4430 6610
2026-04-05 15:30 9.57 2160 17200 (1928) 3 (1954) 1440 48 101 159 187 439 1500 2240 4430 6610
2026-04-05 15:00 9.64 2210 17200 (1928) 3 (1954) 1440 48 101 159 187 439 1500 2240 4430 6610
2026-04-05 14:30 9.72 2260 17200 (1928) 3 (1954) 1440 48 101 159 187 439 1500 2240 4430 6610
2026-04-05 14:00 9.77 2290 17200 (1928) 3 (1954) 1440 48 101 159 187 439 1500 2240 4430 6610
2026-04-05 13:30 9.83 2330 17200 (1928) 3 (1954) 1440 48 101 159 187 439 1500 2240 4430 6610
2026-04-05 13:00 9.90 2370 17200 (1928) 3 (1954) 1440 48 101 159 187 439 1500 2240 4430 6610
2026-04-05 12:30 9.98 2420 17200 (1928) 3 (1954) 1440 48 101 159 187 439 1500 2240 4430 6610
2026-04-05 12:00 10.05 2470 17200 (1928) 3 (1954) 1440 48 101 159 187 439 1500 2240 4430 6610
2026-04-05 11:30 10.13 2520 17200 (1928) 3 (1954) 1440 48 101 159 187 439 1500 2240 4430 6610
2026-04-05 11:00 10.23 2590 17200 (1928) 3 (1954) 1440 48 101 159 187 439 1500 2240 4430 6610
2026-04-05 10:30 10.31 2640 17200 (1928) 3 (1954) 1440 48 101 159 187 439 1500 2240 4430 6610
2026-04-05 10:00 10.38 2690 17200 (1928) 3 (1954) 1440 48 101 159 187 439 1500 2240 4430 6610
2026-04-05 09:30 10.46 2740 17200 (1928) 3 (1954) 1440 48 101 159 187 439 1500 2240 4430 6610
2026-04-05 09:00 10.56 2810 17200 (1928) 3 (1954) 1440 48 101 159 187 439 1500 2240 4430 6610
2026-04-05 08:30 10.66 2880 17200 (1928) 3 (1954) 1440 48 101 159 187 439 1500 2240 4430 6610
2026-04-05 08:00 10.75 2940 17200 (1928) 3 (1954) 1440 48 101 159 187 439 1500 2240 4430 6610
2026-04-05 07:30 10.85 3010 17200 (1928) 3 (1954) 1440 48 101 159 187 439 1500 2240 4430 6610
2026-04-05 07:00 10.95 3080 17200 (1928) 3 (1954) 1440 48 101 159 187 439 1500 2240 4430 6610
2026-04-05 06:30 11.03 3140 17200 (1928) 3 (1954) 1440 48 101 159 187 439 1500 2240 4430 6610
2026-04-05 06:00 11.12 3200 17200 (1928) 3 (1954) 1440 48 101 159 187 439 1500 2240 4430 6610
2026-04-05 05:00 3320 17200 (1928) 3 (1954) 1440 48 101 159 187 439 1500 2240 4430 6610
2026-04-05 04:30 11.36 17200 (1928) 3 (1954) 1440 48 101 159 187 439 1500 2240 4430 6610
2026-04-05 04:00 11.45 17200 (1928) 3 (1954) 1440 48 101 159 187 439 1500 2240 4430 6610
2026-04-05 03:30 3470 17200 (1928) 3 (1954) 1440 48 101 159 187 439 1500 2240 4430 6610
2026-04-05 03:00 11.54 3510 17200 (1928) 3 (1954) 1440 48 101 159 187 439 1500 2240 4430 6610
2026-04-05 02:30 11.59 3540 17200 (1928) 3 (1954) 1440 48 101 159 187 439 1500 2240 4430 6610
2026-04-05 02:00 11.63 3570 17200 (1928) 3 (1954) 1440 48 101 159 187 439 1500 2240 4430 6610
2026-04-05 01:00 11.65 3590 17200 (1928) 3 (1954) 1440 48 101 159 187 439 1500 2240 4430 6610
2026-04-05 00:30 11.64 3580 17200 (1928) 3 (1954) 1440 48 101 159 187 439 1500 2240 4430 6610
2026-04-05 00:00 11.61 3560 17200 (1928) 3 (1954) 1440 48 101 159 187 439 1500 2240 4430 6610
2026-04-04 23:30 11.58 3530 17200 (1928) 3 (1954) 1440 48 101 159 187 439 1500 2240 4430 6610
2026-04-04 23:00 11.51 3480 17200 (1928) 3 (1954) 1440 48 101 159 187 439 1500 2240 4430 6610
2026-04-04 22:30 11.41 3410 23600 (2014) 3 (1954) 1270 49 76 123 153 323 1070 1440 3010 6160
2026-04-04 22:00 11.26 3300 23600 (2014) 3 (1954) 1270 49 76 123 153 323 1070 1440 3010 6160
2026-04-04 21:30 11.08 3170 23600 (2014) 3 (1954) 1270 49 76 123 153 323 1070 1440 3010 6160
2026-04-04 21:00 10.91 3050 23600 (2014) 3 (1954) 1270 49 76 123 153 323 1070 1440 3010 6160
2026-04-04 20:30 10.70 2910 23600 (2014) 3 (1954) 1270 49 76 123 153 323 1070 1440 3010 6160
2026-04-04 20:00 10.53 2790 23600 (2014) 3 (1954) 1270 49 76 123 153 323 1070 1440 3010 6160
2026-04-04 19:30 10.35 2670 23600 (2014) 3 (1954) 1270 49 76 123 153 323 1070 1440 3010 6160
2026-04-04 19:00 10.15 2540 23600 (2014) 3 (1954) 1270 49 76 123 153 323 1070 1440 3010 6160
2026-04-04 18:30 1 2440 23600 (2014) 3 (1954) 1270 49 76 123 153 323 1070 1440 3010 6160
2026-04-04 18:00 9.84 2330 23600 (2014) 3 (1954) 1270 49 76 123 153 323 1070 1440 3010 6160
2026-04-04 17:30 9.70 2240 23600 (2014) 3 (1954) 1270 49 76 123 153 323 1070 1440 3010 6160
2026-04-04 17:00 9.58 2170 23600 (2014) 3 (1954) 1270 49 76 123 153 323 1070 1440 3010 6160
2026-04-04 16:30 9.46 2090 23600 (2014) 3 (1954) 1270 49 76 123 153 323 1070 1440 3010 6160
2026-04-04 16:00 9.43 2070 23600 (2014) 3 (1954) 1270 49 76 123 153 323 1070 1440 3010 6160
2026-04-04 15:30 9.38 2030 23600 (2014) 3 (1954) 1270 49 76 123 153 323 1070 1440 3010 6160
2026-04-04 15:00 9.39 2040 23600 (2014) 3 (1954) 1270 49 76 123 153 323 1070 1440 3010 6160
2026-04-04 14:30 9.38 2030 23600 (2014) 3 (1954) 1270 49 76 123 153 323 1070 1440 3010 6160
2026-04-04 14:00 9.40 2050 23600 (2014) 3 (1954) 1270 49 76 123 153 323 1070 1440 3010 6160
2026-04-04 13:30 9.40 2050 23600 (2014) 3 (1954) 1270 49 76 123 153 323 1070 1440 3010 6160
2026-04-04 13:00 9.43 2070 23600 (2014) 3 (1954) 1270 49 76 123 153 323 1070 1440 3010 6160
2026-04-04 12:30 9.42 2070 23600 (2014) 3 (1954) 1270 49 76 123 153 323 1070 1440 3010 6160
2026-04-04 12:00 9.41 2060 23600 (2014) 3 (1954) 1270 49 76 123 153 323 1070 1440 3010 6160
2026-04-04 11:30 9.40 2050 23600 (2014) 3 (1954) 1270 49 76 123 153 323 1070 1440 3010 6160
2026-04-04 11:00 9.33 1980 23600 (2014) 3 (1954) 1270 49 76 123 153 323 1070 1440 3010 6160
2026-04-04 10:30 9.25 1900 23600 (2014) 3 (1954) 1270 49 76 123 153 323 1070 1440 3010 6160
2026-04-04 10:00 9.17 1820 23600 (2014) 3 (1954) 1270 49 76 123 153 323 1070 1440 3010 6160
2026-04-04 09:30 9.06 1720 23600 (2014) 3 (1954) 1270 49 76 123 153 323 1070 1440 3010 6160
2026-04-04 09:00 8.90 1580 23600 (2014) 3 (1954) 1270 49 76 123 153 323 1070 1440 3010 6160
2026-04-04 08:30 8.70 1410 23600 (2014) 3 (1954) 1270 49 76 123 153 323 1070 1440 3010 6160
2026-04-04 08:00 8.55 1290 23600 (2014) 3 (1954) 1270 49 76 123 153 323 1070 1440 3010 6160
2026-04-04 07:30 8.44 1200 23600 (2014) 3 (1954) 1270 49 76 123 153 323 1070 1440 3010 6160
2026-04-04 07:00 8.35 1140 23600 (2014) 3 (1954) 1270 49 76 123 153 323 1070 1440 3010 6160
2026-04-04 06:30 8.27 1080 23600 (2014) 3 (1954) 1270 49 76 123 153 323 1070 1440 3010 6160
2026-04-04 06:00 8.19 1020 23600 (2014) 3 (1954) 1270 49 76 123 153 323 1070 1440 3010 6160
2026-04-04 05:30 8.13 984 23600 (2014) 3 (1954) 1270 49 76 123 153 323 1070 1440 3010 6160
2026-04-04 05:00 8.11 971 23600 (2014) 3 (1954) 1270 49 76 123 153 323 1070 1440 3010 6160
2026-04-04 04:30 8.11 971 23600 (2014) 3 (1954) 1270 49 76 123 153 323 1070 1440 3010 6160
2026-04-04 04:00 8.13 984 23600 (2014) 3 (1954) 1270 49 76 123 153 323 1070 1440 3010 6160
2026-04-04 03:30 8.13 984 23600 (2014) 3 (1954) 1270 49 76 123 153 323 1070 1440 3010 6160
2026-04-04 03:00 8.14 991 23600 (2014) 3 (1954) 1270 49 76 123 153 323 1070 1440 3010 6160
2026-04-04 02:30 8.14 991 23600 (2014) 3 (1954) 1270 49 76 123 153 323 1070 1440 3010 6160
2026-04-04 02:00 8.16 1000 23600 (2014) 3 (1954) 1270 49 76 123 153 323 1070 1440 3010 6160
2026-04-04 01:30 8.18 1020 23600 (2014) 3 (1954) 1270 49 76 123 153 323 1070 1440 3010 6160
2026-04-04 01:00 8.21 1040 23600 (2014) 3 (1954) 1270 49 76 123 153 323 1070 1440 3010 6160
2026-04-04 00:30 8.24 1060 23600 (2014) 3 (1954) 1270 49 76 123 153 323 1070 1440 3010 6160
2026-04-04 00:00 8.26 1070 23600 (2014) 3 (1954) 1270 49 76 123 153 323 1070 1440 3010 6160
2026-04-03 23:30 8.28 1090 23600 (2014) 3 (1954) 1270 49 76 123 153 323 1070 1440 3010 6160
2026-04-03 23:00 8.31 1110 23600 (2014) 3 (1954) 1270 49 76 123 153 323 1070 1440 3010 6160
2026-04-03 22:30 8.33 1120 9670 (2010) 3 (1954) 1030 48 85 120 146 355 841 1140 2980 6160
2026-04-03 22:00 8.37 1150 9670 (2010) 3 (1954) 1030 48 85 120 146 355 841 1140 2980 6160
2026-04-03 21:30 8.38 1160 9670 (2010) 3 (1954) 1030 48 85 120 146 355 841 1140 2980 6160
2026-04-03 21:00 8.43 1200 9670 (2010) 3 (1954) 1030 48 85 120 146 355 841 1140 2980 6160
2026-04-03 20:30 8.45 1210 9670 (2010) 3 (1954) 1030 48 85 120 146 355 841 1140 2980 6160
2026-04-03 20:00 8.47 1230 9670 (2010) 3 (1954) 1030 48 85 120 146 355 841 1140 2980 6160
2026-04-03 19:30 8.51 1260 9670 (2010) 3 (1954) 1030 48 85 120 146 355 841 1140 2980 6160
2026-04-03 19:00 8.54 1280 9670 (2010) 3 (1954) 1030 48 85 120 146 355 841 1140 2980 6160
2026-04-03 18:30 8.56 1300 9670 (2010) 3 (1954) 1030 48 85 120 146 355 841 1140 2980 6160
2026-04-03 18:00 8.60 1330 9670 (2010) 3 (1954) 1030 48 85 120 146 355 841 1140 2980 6160
2026-04-03 17:30 8.61 1330 9670 (2010) 3 (1954) 1030 48 85 120 146 355 841 1140 2980 6160
2026-04-03 17:00 8.66 1370 9670 (2010) 3 (1954) 1030 48 85 120 146 355 841 1140 2980 6160
2026-04-03 16:30 8.67 1380 9670 (2010) 3 (1954) 1030 48 85 120 146 355 841 1140 2980 6160
2026-04-03 16:00 8.71 1420 9670 (2010) 3 (1954) 1030 48 85 120 146 355 841 1140 2980 6160
2026-04-03 15:30 8.77 1470 9670 (2010) 3 (1954) 1030 48 85 120 146 355 841 1140 2980 6160
2026-04-03 15:00 8.80 1490 9670 (2010) 3 (1954) 1030 48 85 120 146 355 841 1140 2980 6160
2026-04-03 14:30 8.83 1520 9670 (2010) 3 (1954) 1030 48 85 120 146 355 841 1140 2980 6160
2026-04-03 14:00 8.87 1550 9670 (2010) 3 (1954) 1030 48 85 120 146 355 841 1140 2980 6160
2026-04-03 13:30 8.91 1590 9670 (2010) 3 (1954) 1030 48 85 120 146 355 841 1140 2980 6160
2026-04-03 13:00 8.94 1610 9670 (2010) 3 (1954) 1030 48 85 120 146 355 841 1140 2980 6160
2026-04-03 12:30 8.98 1650 9670 (2010) 3 (1954) 1030 48 85 120 146 355 841 1140 2980 6160
2026-04-03 12:00 9.02 1680 9670 (2010) 3 (1954) 1030 48 85 120 146 355 841 1140 2980 6160
2026-04-03 11:30 9.06 1720 9670 (2010) 3 (1954) 1030 48 85 120 146 355 841 1140 2980 6160
2026-04-03 11:00 9.09 1750 9670 (2010) 3 (1954) 1030 48 85 120 146 355 841 1140 2980 6160
2026-04-03 10:30 9.11 1770 9670 (2010) 3 (1954) 1030 48 85 120 146 355 841 1140 2980 6160
2026-04-03 10:00 9.15 1810 9670 (2010) 3 (1954) 1030 48 85 120 146 355 841 1140 2980 6160
2026-04-03 09:30 9.20 1850 9670 (2010) 3 (1954) 1030 48 85 120 146 355 841 1140 2980 6160
2026-04-03 09:00 9.24 1890 9670 (2010) 3 (1954) 1030 48 85 120 146 355 841 1140 2980 6160
2026-04-03 08:30 9.26 1910 9670 (2010) 3 (1954) 1030 48 85 120 146 355 841 1140 2980 6160
2026-04-03 08:00 9.31 1960 9670 (2010) 3 (1954) 1030 48 85 120 146 355 841 1140 2980 6160
2026-04-03 07:30 9.33 1980 9670 (2010) 3 (1954) 1030 48 85 120 146 355 841 1140 2980 6160
2026-04-03 07:00 9.36 2010 9670 (2010) 3 (1954) 1030 48 85 120 146 355 841 1140 2980 6160
2026-04-03 06:30 9.39 2040 9670 (2010) 3 (1954) 1030 48 85 120 146 355 841 1140 2980 6160
2026-04-03 06:00 9.42 2070 9670 (2010) 3 (1954) 1030 48 85 120 146 355 841 1140 2980 6160
2026-04-03 05:30 9.43 2070 9670 (2010) 3 (1954) 1030 48 85 120 146 355 841 1140 2980 6160
2026-04-03 05:00 9.46 2090 9670 (2010) 3 (1954) 1030 48 85 120 146 355 841 1140 2980 6160
2026-04-03 04:30 9.48 2100 9670 (2010) 3 (1954) 1030 48 85 120 146 355 841 1140 2980 6160
2026-04-03 04:00 9.51 2120 9670 (2010) 3 (1954) 1030 48 85 120 146 355 841 1140 2980 6160
2026-04-03 03:30 9.52 2130 9670 (2010) 3 (1954) 1030 48 85 120 146 355 841 1140 2980 6160
2026-04-03 03:00 9.55 2150 9670 (2010) 3 (1954) 1030 48 85 120 146 355 841 1140 2980 6160
2026-04-03 02:30 9.57 2160 9670 (2010) 3 (1954) 1030 48 85 120 146 355 841 1140 2980 6160
2026-04-03 02:00 9.59 2170 9670 (2010) 3 (1954) 1030 48 85 120 146 355 841 1140 2980 6160
2026-04-03 01:30 9.60 2180 9670 (2010) 3 (1954) 1030 48 85 120 146 355 841 1140 2980 6160
2026-04-03 01:00 9.62 2190 9670 (2010) 3 (1954) 1030 48 85 120 146 355 841 1140 2980 6160
2026-04-03 00:30 9.62 2190 9670 (2010) 3 (1954) 1030 48 85 120 146 355 841 1140 2980 6160
2026-04-03 00:00 9.64 2210 9670 (2010) 3 (1954) 1030 48 85 120 146 355 841 1140 2980 6160
2026-04-02 23:30 9.64 2210 9670 (2010) 3 (1954) 1030 48 85 120 146 355 841 1140 2980 6160
2026-04-02 23:00 9.63 2200 9670 (2010) 3 (1954) 1030 48 85 120 146 355 841 1140 2980 6160

A total of 372 rows are displayed for years 1922 through 2025.